Time;durP1;ratioP1;P1;durP2;ratioP2;P2;SDS_P1;SDS_P2;PMS_P1;PMS_P2;Temp;Humidity;BMP_temperature;BMP_pressure;BME280_temperature;BME280_humidity;BME280_pressure;Samples;Min_cycle;Max_cycle;Signal;HPM_P1;HPM_P2
2022/07/09 00:00:10;;;;;;;6.40;2.00;;;;;;;15.80;100.00;102879.69;5000735;28;20264;-79
2022/07/09 00:02:36;;;;;;;5.23;2.00;;;;;;;14.42;100.00;102628.44;5001220;28;21143;-81
2022/07/09 00:05:02;;;;;;;4.97;1.90;;;;;;;15.08;100.00;102740.38;4997693;28;20449;-81
2022/07/09 00:07:27;;;;;;;8.30;2.30;;;;;;;15.67;100.00;102822.63;4997737;28;20468;-81
2022/07/09 00:09:53;;;;;;;2.90;2.20;;;;;;;15.98;100.00;102874.75;4976580;28;20585;-81
2022/07/09 00:12:18;;;;;;;3.77;2.20;;;;;;;15.96;100.00;102876.78;5000285;28;20181;-80
2022/07/09 00:14:44;;;;;;;3.70;2.00;;;;;;;15.32;100.00;102776.31;5001991;28;20185;-80
2022/07/09 00:17:10;;;;;;;4.20;2.10;;;;;;;15.93;100.00;102895.28;5000118;28;20212;-81
2022/07/09 00:19:36;;;;;;;2.97;1.77;;;;;;;15.52;100.00;102814.47;4985739;28;20199;-82
2022/07/09 00:22:02;;;;;;;3.33;1.73;;;;;;;15.28;100.00;102810.97;4994652;28;20655;-82
2022/07/09 00:24:27;;;;;;;4.20;2.13;;;;;;;15.33;100.00;102772.56;5005659;28;20432;-82
2022/07/09 00:26:53;;;;;;;5.63;2.60;;;;;;;13.90;100.00;102570.63;4975238;28;20479;-82
2022/07/09 00:29:18;;;;;;;3.63;2.30;;;;;;;14.01;100.00;102575.59;5000276;28;20216;-81
2022/07/09 00:31:45;;;;;;;3.43;1.90;;;;;;;15.83;100.00;102865.78;5004047;28;20274;-82
2022/07/09 00:34:11;;;;;;;7.43;3.00;;;;;;;14.00;100.00;102565.84;5003493;28;20216;-80
2022/07/09 00:36:37;;;;;;;5.07;2.13;;;;;;;16.04;100.00;102879.44;4985527;28;20467;-80
2022/07/09 00:39:02;;;;;;;3.70;2.10;;;;;;;14.12;100.00;102577.06;4997209;28;20844;-82
2022/07/09 00:41:28;;;;;;;5.80;2.13;;;;;;;14.96;100.00;102695.88;4993804;28;20193;-82
2022/07/09 00:43:53;;;;;;;3.23;1.87;;;;;;;14.17;100.00;102563.84;4998571;28;20196;-80
2022/07/09 00:46:18;;;;;;;2.87;1.93;;;;;;;14.35;100.00;102581.56;4987846;28;20307;-80
2022/07/09 00:48:44;;;;;;;4.57;2.00;;;;;;;15.16;100.00;102685.41;5005691;28;20696;-81
2022/07/09 00:51:11;;;;;;;4.33;2.07;;;;;;;14.36;100.00;102572.47;5002553;28;20891;-78
2022/07/09 00:53:37;;;;;;;2.27;1.70;;;;;;;15.57;100.00;102777.75;5007881;28;20188;-81
2022/07/09 00:56:04;;;;;;;4.20;2.60;;;;;;;14.51;100.00;102567.94;5004342;28;20476;-78
2022/07/09 00:58:30;;;;;;;5.50;2.10;;;;;;;15.33;100.00;102691.44;5005613;28;20436;-77
2022/07/09 01:00:56;;;;;;;4.13;2.30;;;;;;;15.26;100.00;102695.94;5003019;28;20447;-77
2022/07/09 01:03:22;;;;;;;4.83;2.03;;;;;;;15.70;100.00;102760.91;5005276;28;20435;-79
2022/07/09 01:05:48;;;;;;;3.07;1.67;;;;;;;15.93;100.00;102793.28;5005616;28;20645;-79
2022/07/09 01:08:14;;;;;;;4.20;2.23;;;;;;;15.99;100.00;102807.94;4996647;28;20212;-79
2022/07/09 01:10:40;;;;;;;3.40;1.60;;;;;;;16.03;100.00;102777.59;5000596;28;20518;-78
2022/07/09 01:13:05;;;;;;;2.90;1.90;;;;;;;16.46;100.00;102841.88;4999002;28;20200;-81
2022/07/09 01:15:31;;;;;;;3.63;2.37;;;;;;;16.35;100.00;102845.91;5001128;28;20402;-80
2022/07/09 01:17:58;;;;;;;6.33;2.67;;;;;;;16.30;100.00;102851.06;4978423;28;20475;-78
2022/07/09 01:20:29;;;;;;;3.73;1.87;;;;;;;16.39;100.00;102849.91;4999511;28;20231;-78
2022/07/09 01:22:54;;;;;;;5.70;2.57;;;;;;;15.82;100.00;102734.22;5001190;28;20440;-79
2022/07/09 01:25:30;;;;;;;5.27;2.60;;;;;;;16.22;100.00;102808.66;4984198;28;20444;-79
2022/07/09 01:27:56;;;;;;;5.13;2.47;;;;;;;15.87;100.00;102749.88;5004852;28;20201;-79
2022/07/09 01:30:26;;;;;;;2.30;1.63;;;;;;;15.91;100.00;102757.47;4983255;28;20463;-80
2022/07/09 01:32:52;;;;;;;4.70;2.80;;;;;;;15.47;100.00;102703.31;4991469;28;20189;-78
2022/07/09 01:35:18;;;;;;;5.00;2.70;;;;;;;16.10;100.00;102812.88;4999508;28;20447;-80
2022/07/09 01:37:44;;;;;;;4.27;2.47;;;;;;;16.35;100.00;102848.63;4998291;28;20459;-78
2022/07/09 01:40:10;;;;;;;5.60;3.10;;;;;;;16.28;100.00;102824.16;4999345;28;20435;-79
2022/07/09 01:42:35;;;;;;;6.00;2.80;;;;;;;15.84;100.00;102761.09;4998245;28;20189;-78
2022/07/09 01:45:01;;;;;;;6.17;2.83;;;;;;;15.68;100.00;102749.44;4998702;28;20932;-78
2022/07/09 01:47:26;;;;;;;4.83;2.70;;;;;;;15.51;100.00;102713.59;4994334;28;20626;-79
2022/07/09 01:49:51;;;;;;;2.67;2.30;;;;;;;14.48;100.00;102539.44;5000305;28;20279;-80
2022/07/09 01:52:17;;;;;;;3.93;2.60;;;;;;;14.82;100.00;102588.63;4997385;28;20805;-78
2022/07/09 01:54:42;;;;;;;5.27;2.77;;;;;;;14.77;100.00;102575.66;4998445;28;20185;-77
2022/07/09 01:57:08;;;;;;;6.83;3.03;;;;;;;14.74;100.00;102597.63;5000041;28;20255;-78
2022/07/09 01:59:33;;;;;;;4.33;2.63;;;;;;;15.61;100.00;102724.09;4998706;28;20197;-79
2022/07/09 02:01:58;;;;;;;4.87;2.43;;;;;;;14.35;100.00;102533.84;5000371;28;20192;-79
2022/07/09 02:04:24;;;;;;;4.67;2.80;;;;;;;16.34;100.00;102816.31;4997564;28;20189;-80
2022/07/09 02:06:50;;;;;;;8.13;3.13;;;;;;;15.37;100.00;102649.50;5000459;28;20217;-79
2022/07/09 02:09:15;;;;;;;5.93;2.80;;;;;;;16.24;100.00;102822.03;4998069;28;20258;-78
2022/07/09 02:11:41;;;;;;;5.50;2.50;;;;;;;15.53;100.00;102746.66;4996688;28;20944;-78
2022/07/09 02:14:06;;;;;;;6.00;2.67;;;;;;;16.17;100.00;102800.28;4997867;28;20211;-79
2022/07/09 02:16:31;;;;;;;5.80;2.50;;;;;;;16.25;100.00;102802.03;4979057;28;20208;-78
2022/07/09 02:18:57;;;;;;;5.93;2.67;;;;;;;15.52;100.00;102690.91;4980780;28;20184;-77
2022/07/09 02:21:22;;;;;;;12.10;2.97;;;;;;;15.73;100.00;102724.50;4995398;28;20196;-78
2022/07/09 02:23:48;;;;;;;4.43;2.90;;;;;;;16.22;100.00;102813.25;4998485;28;20235;-78
2022/07/09 02:26:14;;;;;;;6.33;2.87;;;;;;;15.44;100.00;102661.25;4995132;28;20286;-79
2022/07/09 02:28:40;;;;;;;5.37;3.47;;;;;;;15.65;100.00;102711.03;4999606;28;20464;-79
2022/07/09 02:31:05;;;;;;;15.20;3.73;;;;;;;15.64;100.00;102693.16;4998488;28;20597;-79
2022/07/09 02:33:31;;;;;;;5.40;2.60;;;;;;;16.17;100.00;102785.88;4999006;28;20195;-78
2022/07/09 02:35:57;;;;;;;4.60;3.10;;;;;;;15.64;100.00;102703.97;4999899;28;20192;-79
2022/07/09 02:38:22;;;;;;;6.10;3.60;;;;;;;14.47;100.00;102526.16;4980341;28;20184;-79
2022/07/09 02:40:48;;;;;;;4.97;2.70;;;;;;;14.33;100.00;102499.97;5000670;28;20259;-78
2022/07/09 02:43:13;;;;;;;5.93;2.70;;;;;;;15.39;100.00;102677.22;4997372;28;20196;-77
2022/07/09 02:45:39;;;;;;;4.57;3.00;;;;;;;15.46;100.00;102697.06;4999345;28;20527;-79
2022/07/09 02:48:04;;;;;;;6.43;3.83;;;;;;;16.17;100.00;102811.13;4994928;28;20312;-77
2022/07/09 02:50:30;;;;;;;4.43;3.10;;;;;;;16.11;100.00;102794.75;4991278;28;20573;-80
2022/07/09 02:52:55;;;;;;;10.00;3.40;;;;;;;16.16;100.00;102784.22;4998465;28;20181;-78
2022/07/09 02:55:21;;;;;;;7.73;3.57;;;;;;;15.50;100.00;102668.63;4980130;28;20181;-78
2022/07/09 02:57:46;;;;;;;4.53;3.03;;;;;;;16.25;100.00;102808.28;4996373;28;20233;-78
2022/07/09 03:00:12;;;;;;;5.40;3.10;;;;;;;16.27;100.00;102800.81;4999120;28;20187;-79
2022/07/09 03:02:37;;;;;;;5.93;3.67;;;;;;;16.21;100.00;102789.91;4981983;28;20203;-78
2022/07/09 03:05:03;;;;;;;5.70;3.57;;;;;;;16.21;100.00;102790.75;4999470;28;20193;-78
2022/07/09 03:07:28;;;;;;;6.70;2.93;;;;;;;15.39;100.00;102661.00;4996859;28;20272;-79
2022/07/09 03:09:54;;;;;;;7.57;3.60;;;;;;;15.86;100.00;102705.75;4999522;28;20201;-77
2022/07/09 03:12:19;;;;;;;8.33;3.40;;;;;;;16.25;100.00;102783.06;4990249;28;20192;-78
2022/07/09 03:14:44;;;;;;;8.60;3.60;;;;;;;15.60;100.00;102665.63;4997164;28;20614;-78
2022/07/09 03:17:10;;;;;;;5.17;2.77;;;;;;;15.78;100.00;102709.41;5003695;28;20215;-77
2022/07/09 03:19:35;;;;;;;8.90;3.20;;;;;;;15.14;100.00;102641.50;4984153;28;20186;-78
2022/07/09 03:22:01;;;;;;;5.07;3.20;;;;;;;16.10;100.00;102771.44;4999672;28;20705;-77
2022/07/09 03:24:26;;;;;;;7.43;3.40;;;;;;;16.15;100.00;102791.50;4999282;28;20189;-78
2022/07/09 03:26:52;;;;;;;4.10;2.40;;;;;;;15.87;100.00;102720.97;4983381;28;20212;-77
2022/07/09 03:29:17;;;;;;;7.00;3.00;;;;;;;15.96;100.00;102749.59;4998970;28;20205;-78
2022/07/09 03:31:43;;;;;;;5.10;2.93;;;;;;;15.47;100.00;102657.34;5000157;28;20181;-78
2022/07/09 03:34:08;;;;;;;6.23;3.40;;;;;;;15.78;100.00;102716.69;5004389;28;20272;-79
2022/07/09 03:36:34;;;;;;;5.47;2.73;;;;;;;14.83;100.00;102583.03;4999925;28;20212;-78
2022/07/09 03:38:59;;;;;;;4.77;3.20;;;;;;;16.26;100.00;102809.97;4989682;28;20543;-78
2022/07/09 03:41:25;;;;;;;6.87;2.90;;;;;;;15.90;100.00;102730.56;5001394;28;20443;-79
2022/07/09 03:43:50;;;;;;;7.93;2.90;;;;;;;15.89;100.00;102734.31;4986584;28;20189;-80
2022/07/09 03:46:16;;;;;;;6.33;2.90;;;;;;;15.49;100.00;102676.94;4986103;28;20209;-78
2022/07/09 03:48:41;;;;;;;7.27;3.47;;;;;;;15.73;100.00;102695.59;5006061;28;20209;-79
2022/07/09 03:51:07;;;;;;;5.53;2.77;;;;;;;15.35;100.00;102624.53;5001332;28;20189;-79
2022/07/09 03:53:33;;;;;;;8.70;3.57;;;;;;;16.34;100.00;102789.22;5003591;28;20193;-78
2022/07/09 03:55:58;;;;;;;7.60;3.10;;;;;;;14.88;100.00;102604.94;5001305;28;20208;-80
2022/07/09 03:58:23;;;;;;;8.30;3.83;;;;;;;15.88;100.00;102714.53;4997344;28;20443;-79
2022/07/09 04:00:49;;;;;;;9.10;3.13;;;;;;;14.99;100.00;102562.28;5000983;28;20197;-80
2022/07/09 04:03:14;;;;;;;5.43;3.13;;;;;;;15.34;100.00;102664.25;4996625;28;20194;-79
2022/07/09 04:05:41;;;;;;;4.90;3.20;;;;;;;16.36;100.00;102795.28;4999063;28;20196;-79
2022/07/09 04:08:06;;;;;;;10.80;3.27;;;;;;;14.89;100.00;102593.09;4998699;28;20204;-81
2022/07/09 04:10:32;;;;;;;6.60;3.00;;;;;;;16.11;100.00;102740.63;5010726;22;20571;-70
2022/07/09 04:12:57;;;;;;;9.20;3.70;;;;;;;16.02;100.00;102737.19;4995984;28;20659;-70
2022/07/09 04:15:23;;;;;;;7.87;3.43;;;;;;;16.33;100.00;102768.59;4996150;28;20200;-70
2022/07/09 04:17:48;;;;;;;5.70;2.93;;;;;;;16.18;100.00;102730.72;4998051;28;20658;-70
2022/07/09 04:20:14;;;;;;;8.50;3.30;;;;;;;16.32;100.00;102778.59;4981898;28;20217;-71
2022/07/09 04:22:39;;;;;;;4.20;2.83;;;;;;;16.20;100.00;102744.88;4996911;28;20181;-70
2022/07/09 04:25:05;;;;;;;8.03;2.43;;;;;;;16.23;100.00;102742.66;4994143;28;20193;-70
2022/07/09 04:27:31;;;;;;;5.77;2.50;;;;;;;16.67;100.00;102797.75;4992593;28;20606;-70
2022/07/09 04:29:56;;;;;;;6.60;2.50;;;;;;;16.45;100.00;102786.84;4994900;28;20484;-71
2022/07/09 04:32:21;;;;;;;5.70;2.40;;;;;;;16.58;100.00;102801.63;4996475;28;20185;-71
2022/07/09 04:34:47;;;;;;;3.70;2.30;;;;;;;16.62;100.00;102802.91;4993922;28;20730;-70
2022/07/09 04:37:12;;;;;;;4.90;2.50;;;;;;;15.52;100.00;102626.00;4995139;28;20193;-70
2022/07/09 04:39:37;;;;;;;5.00;2.77;;;;;;;16.07;100.00;102713.09;4993494;28;20251;-71
2022/07/09 04:42:03;;;;;;;4.83;2.13;;;;;;;16.29;100.00;102743.78;4995943;28;20587;-71
2022/07/09 04:44:29;;;;;;;2.83;1.73;;;;;;;16.65;100.00;102807.94;4994185;28;20239;-71
2022/07/09 04:46:54;;;;;;;5.10;2.07;;;;;;;16.58;100.00;102786.19;4991411;28;20672;-70
2022/07/09 04:49:20;;;;;;;5.37;2.00;;;;;;;16.47;100.00;102757.72;4994765;28;20209;-70
2022/07/09 04:51:46;;;;;;;4.40;2.70;;;;;;;16.46;100.00;102775.00;4994041;28;20194;-70
2022/07/09 04:54:11;;;;;;;3.30;1.73;;;;;;;16.12;100.00;102707.13;4992258;28;20451;-71
2022/07/09 04:56:37;;;;;;;3.60;2.27;;;;;;;16.28;100.00;102732.06;4996243;28;20277;-71
2022/07/09 04:59:02;;;;;;;3.93;1.80;;;;;;;16.39;100.00;102728.03;4995316;28;20194;-70
2022/07/09 05:01:29;;;;;;;3.93;1.97;;;;;;;16.70;100.00;102787.34;4995845;28;20231;-71
2022/07/09 05:03:55;;;;;;;3.53;2.23;;;;;;;16.71;100.00;102782.78;4999229;28;20192;-70
2022/07/09 05:06:20;;;;;;;5.23;2.20;;;;;;;16.82;100.00;102781.47;4999226;28;20874;-70
2022/07/09 05:08:47;;;;;;;5.30;2.00;;;;;;;16.58;100.00;102737.44;4995571;28;20205;-71
2022/07/09 05:11:12;;;;;;;6.50;2.33;;;;;;;16.60;100.00;102762.44;4993558;28;20218;-71
2022/07/09 05:13:40;;;;;;;4.87;1.73;;;;;;;16.74;100.00;102771.53;4979813;28;20450;-70
2022/07/09 05:16:05;;;;;;;3.77;1.87;;;;;;;16.92;100.00;102780.13;4996921;28;20518;-71
2022/07/09 05:18:31;;;;;;;4.47;1.83;;;;;;;16.64;100.00;102747.50;4992687;28;20456;-71
2022/07/09 05:20:57;;;;;;;4.27;1.70;;;;;;;16.49;100.00;102701.50;4993575;28;20961;-71
2022/07/09 05:23:22;;;;;;;6.40;2.47;;;;;;;16.79;100.00;102766.44;4985825;28;20193;-70
2022/07/09 05:25:48;;;;;;;3.57;1.83;;;;;;;16.91;100.00;102767.56;4994892;28;20292;-70
2022/07/09 05:28:13;;;;;;;5.60;2.00;;;;;;;16.49;100.00;102708.78;4991611;28;20189;-70
2022/07/09 05:30:38;;;;;;;1.80;1.50;;;;;;;16.49;100.00;102701.50;4993182;28;20229;-71
2022/07/09 05:33:05;;;;;;;3.00;1.60;;;;;;;16.96;100.00;102772.44;4994610;28;20190;-71
2022/07/09 05:35:30;;;;;;;3.40;1.90;;;;;;;16.66;100.00;102715.63;4992961;28;20185;-70
2022/07/09 05:37:56;;;;;;;3.77;2.10;;;;;;;16.41;100.00;102669.13;4991911;28;20444;-70
2022/07/09 05:40:21;;;;;;;5.30;2.20;;;;;;;16.82;100.00;102730.81;4994100;28;20759;-70
2022/07/09 05:42:47;;;;;;;7.20;2.67;;;;;;;17.04;100.00;102774.16;4990391;28;20193;-70
2022/07/09 05:45:13;;;;;;;7.67;3.03;;;;;;;16.79;100.00;102717.66;4993869;28;20252;-70
2022/07/09 05:47:38;;;;;;;2.80;1.90;;;;;;;16.99;100.00;102766.63;4983026;28;20263;-71
2022/07/09 05:50:04;;;;;;;6.63;2.53;;;;;;;16.70;100.00;102729.63;4990850;28;20221;-70
2022/07/09 05:52:29;;;;;;;3.20;2.10;;;;;;;17.03;100.00;102775.19;4996051;28;20193;-70
2022/07/09 05:54:55;;;;;;;3.97;2.00;;;;;;;17.02;100.00;102768.94;4994494;28;20189;-70
2022/07/09 05:57:20;;;;;;;3.83;2.03;;;;;;;16.44;100.00;102673.31;4997951;28;20185;-69
2022/07/09 05:59:46;;;;;;;3.90;2.37;;;;;;;17.06;100.00;102775.63;4996150;28;20287;-69
2022/07/09 06:02:11;;;;;;;5.17;2.37;;;;;;;16.87;100.00;102752.75;4990014;28;20239;-69
2022/07/09 06:04:37;;;;;;;4.37;1.97;;;;;;;17.01;100.00;102758.28;4993450;28;20203;-69
2022/07/09 06:07:02;;;;;;;4.40;2.23;;;;;;;17.03;100.00;102757.06;4994547;28;20280;-70
2022/07/09 06:09:28;;;;;;;3.50;2.20;;;;;;;16.81;100.00;102731.00;4993629;28;20633;-70
2022/07/09 06:11:53;;;;;;;4.43;2.07;;;;;;;16.69;100.00;102703.53;4997941;28;20181;-69
2022/07/09 06:14:19;;;;;;;8.77;2.50;;;;;;;16.70;100.00;102705.25;4996150;28;20193;-69
2022/07/09 06:16:46;;;;;;;3.40;2.03;;;;;;;16.48;100.00;102666.47;4997657;28;20604;-70
2022/07/09 06:19:13;;;;;;;3.10;2.00;;;;;;;17.15;100.00;102771.78;4983796;28;20799;-70
2022/07/09 06:21:38;;;;;;;6.87;2.50;;;;;;;16.61;100.00;102676.59;4993207;28;20480;-70
2022/07/09 06:24:05;;;;;;;3.57;2.23;;;;;;;17.22;100.00;102757.44;4996768;28;20479;-69
2022/07/09 06:26:31;;;;;;;4.00;2.03;;;;;;;16.73;100.00;102677.75;4991599;28;20288;-70
2022/07/09 06:28:56;;;;;;;4.90;2.23;;;;;;;16.57;100.00;102667.16;4994108;28;20840;-69
2022/07/09 06:31:22;;;;;;;5.50;2.23;;;;;;;17.12;100.00;102750.44;4989842;28;20200;-70
2022/07/09 06:33:48;;;;;;;3.27;1.77;;;;;;;17.29;100.00;102766.44;4991839;28;20670;-70
2022/07/09 06:36:14;;;;;;;3.87;2.20;;;;;;;16.66;100.00;102683.13;4994174;28;20444;-70
2022/07/09 06:41:23;;;;;;;4.57;1.90;;;;;;;16.62;100.00;102634.94;4994489;28;20219;-70
2022/07/09 06:43:48;;;;;;;4.50;1.73;;;;;;;17.22;100.00;102719.47;4991219;28;20439;-70
2022/07/09 06:46:14;;;;;;;3.17;1.80;;;;;;;17.53;100.00;102738.03;4997475;28;20185;-70
2022/07/09 06:48:39;;;;;;;3.03;1.83;;;;;;;17.68;100.00;102735.22;4991885;28;20284;-69
2022/07/09 06:51:04;;;;;;;7.30;2.73;;;;;;;17.33;100.00;102689.09;5002095;28;21100;-69
2022/07/09 06:53:30;;;;;;;4.07;1.40;;;;;;;17.79;100.00;102740.94;5000066;28;20193;-70
2022/07/09 06:55:55;;;;;;;4.57;1.60;;;;;;;17.46;100.00;102680.19;4996360;28;20564;-70
2022/07/09 06:58:20;;;;;;;3.57;1.57;;;;;;;17.34;100.00;102640.06;4996169;28;20193;-69
2022/07/09 07:00:46;;;;;;;2.07;1.50;;;;;;;17.73;100.00;102697.44;4993677;28;21532;-69
2022/07/09 07:03:11;;;;;;;3.13;1.13;;;;;;;18.01;100.00;102732.69;4996351;28;20211;-69
2022/07/09 07:05:37;;;;;;;3.30;1.73;;;;;;;17.86;100.00;102677.72;4999482;28;20205;-70
2022/07/09 07:08:02;;;;;;;2.50;1.20;;;;;;;17.99;100.00;102680.44;4993247;28;20198;-70
2022/07/09 07:10:27;;;;;;;5.50;1.30;;;;;;;17.80;100.00;102654.91;4994297;28;21163;-70
2022/07/09 07:12:54;;;;;;;3.07;1.27;;;;;;;17.71;100.00;102659.66;4995598;28;20189;-69
2022/07/09 07:15:20;;;;;;;2.20;1.27;;;;;;;17.82;100.00;102636.56;4992739;28;20197;-69
2022/07/09 07:17:45;;;;;;;4.53;1.37;;;;;;;17.81;100.00;102626.72;4994064;28;20444;-70
2022/07/09 07:20:11;;;;;;;4.20;1.40;;;;;;;17.74;100.00;102620.44;4993574;28;20412;-71
2022/07/09 07:22:36;;;;;;;2.40;1.30;;;;;;;17.67;100.00;102604.09;4998914;28;20200;-73
2022/07/09 07:25:02;;;;;;;2.10;1.07;;;;;;;18.37;100.00;102690.78;4997817;28;20495;-73
2022/07/09 07:27:28;;;;;;;2.47;1.57;;;;;;;17.31;100.00;102520.28;4995688;28;20275;-72
2022/07/09 07:29:53;;;;;;;2.70;1.00;;;;;;;18.40;100.00;102698.53;4995814;28;20550;-71
2022/07/09 07:32:19;;;;;;;2.67;1.13;;;;;;;18.04;100.00;102651.66;4994967;28;20216;-72
2022/07/09 07:34:44;;;;;;;3.07;1.00;;;;;;;17.54;100.00;102528.94;5001730;28;20248;-71
2022/07/09 07:37:09;;;;;;;6.67;1.17;;;;;;;17.98;100.00;102625.31;4999413;28;20189;-71
2022/07/09 07:39:35;;;;;;;3.20;1.33;;;;;;;16.67;100.00;102464.50;4999513;28;20624;-73
2022/07/09 07:42:00;;;;;;;2.77;1.00;;;;;;;17.15;100.00;102545.88;5002979;28;20280;-72
2022/07/09 07:44:26;;;;;;;6.00;1.40;;;;;;;18.15;100.00;102703.72;4998594;28;20189;-72
2022/07/09 07:46:51;;;;;;;2.67;1.20;;;;;;;17.67;100.00;102633.13;5001364;28;20190;-73
2022/07/09 07:49:17;;;;;;;3.67;1.20;;;;;;;17.70;100.00;102636.25;4997223;28;20335;-71
2022/07/09 07:51:43;;;;;;;4.10;1.47;;;;;;;18.28;100.00;102710.03;4993510;28;20200;-70
2022/07/09 07:54:08;;;;;;;3.47;1.17;;;;;;;18.12;100.00;102617.22;4993910;28;20440;-72
2022/07/09 07:56:36;;;;;;;2.17;0.90;;;;;;;18.61;100.00;102684.78;4994556;28;20189;-72
2022/07/09 07:59:02;;;;;;;3.33;1.23;;;;;;;18.67;100.00;102691.28;4998135;28;20204;-72
2022/07/09 08:01:28;;;;;;;3.67;1.20;;;;;;;18.12;100.00;102600.94;4988161;28;20479;-73
2022/07/09 08:03:53;;;;;;;3.63;1.40;;;;;;;17.39;100.00;102509.28;4998732;28;20445;-73
2022/07/09 08:06:18;;;;;;;3.03;1.27;;;;;;;17.89;100.00;102574.16;4997705;28;20221;-70
2022/07/09 08:08:44;;;;;;;5.37;1.20;;;;;;;16.79;100.00;102418.72;4992491;28;20674;-71
2022/07/09 08:11:09;;;;;;;3.20;1.30;;;;;;;17.84;100.00;102553.03;4987767;28;20247;-71
2022/07/09 08:13:35;;;;;;;1.73;1.00;;;;;;;18.82;100.00;102699.25;4992264;28;20244;-71
2022/07/09 08:16:02;;;;;;;3.07;1.33;;;;;;;18.86;100.00;102695.06;4994024;28;20193;-71
2022/07/09 08:18:27;;;;;;;3.67;1.00;;;;;;;18.99;100.00;102697.78;4991785;28;20197;-71
2022/07/09 08:20:53;;;;;;;3.70;1.40;;;;;;;18.32;100.00;102636.28;4992927;28;20463;-71
2022/07/09 08:23:18;;;;;;;3.07;1.17;;;;;;;17.88;100.00;102558.88;4994604;28;20197;-71
2022/07/09 08:25:43;;;;;;;3.07;1.43;;;;;;;18.28;100.00;102642.13;4996790;28;20196;-71
2022/07/09 08:28:09;;;;;;;4.03;1.23;;;;;;;18.55;100.00;102652.19;4992747;28;20264;-71
2022/07/09 08:30:35;;;;;;;3.57;1.20;;;;;;;18.39;100.00;102615.38;4998161;28;20228;-71
2022/07/09 08:33:00;;;;;;;5.00;2.00;;;;;;;18.50;100.00;102652.78;4999425;28;20197;-70
2022/07/09 08:35:26;;;;;;;5.33;1.70;;;;;;;18.69;100.00;102706.34;4994165;28;20451;-69
2022/07/09 08:37:53;;;;;;;5.13;1.40;;;;;;;16.71;100.00;102333.00;4996538;28;20642;-70
2022/07/09 08:40:19;;;;;;;4.60;1.27;;;;;;;18.26;100.00;102568.13;4998542;28;20773;-69
2022/07/09 08:42:44;;;;;;;2.20;1.20;;;;;;;17.89;100.00;102484.56;5000003;28;20884;-70
2022/07/09 08:45:14;;;;;;;4.00;1.47;;;;;;;19.07;100.00;102661.41;4996144;28;20189;-69
2022/07/09 08:47:41;;;;;;;2.20;0.90;;;;;;;18.88;100.00;102647.59;5000770;28;20185;-69
2022/07/09 08:50:07;;;;;;;3.17;1.00;;;;;;;18.80;100.00;102671.44;5001492;28;20472;-69
2022/07/09 08:52:35;;;;;;;2.83;1.40;;;;;;;18.64;100.00;102661.78;4998693;28;20440;-70
2022/07/09 08:55:01;;;;;;;3.80;1.30;;;;;;;18.48;100.00;102638.56;5001004;28;20437;-70
2022/07/09 08:57:26;;;;;;;1.33;1.00;;;;;;;18.56;100.00;102632.94;5002266;28;20428;-72
2022/07/09 08:59:52;;;;;;;2.10;1.10;;;;;;;18.15;100.00;102585.06;4998769;28;20453;-70
2022/07/09 09:02:19;;;;;;;2.30;0.90;;;;;;;18.53;100.00;102652.38;4995228;28;20223;-71
2022/07/09 09:04:45;;;;;;;5.07;1.30;;;;;;;18.78;100.00;102690.69;5000321;28;20181;-71
2022/07/09 09:07:17;;;;;;;6.67;1.53;;;;;;;18.70;100.00;102677.28;4997877;28;20427;-70
2022/07/09 09:09:43;;;;;;;4.90;1.33;;;;;;;18.79;100.00;102683.38;4998387;28;20276;-71
2022/07/09 09:12:09;;;;;;;3.23;1.10;;;;;;;18.70;100.00;102682.69;4997797;28;20425;-71
2022/07/09 09:14:35;;;;;;;4.80;1.60;;;;;;;18.11;100.00;102591.94;4998769;28;20429;-71
2022/07/09 09:17:05;;;;;;;2.30;1.40;;;;;;;18.86;100.00;102686.91;4992031;28;20449;-71
2022/07/09 09:19:31;;;;;;;4.20;1.47;;;;;;;19.01;100.00;102675.84;4998910;28;20248;-71
2022/07/09 09:21:56;;;;;;;3.27;1.30;;;;;;;18.64;100.00;102630.00;4998442;28;20439;-71
2022/07/09 09:24:25;;;;;;;3.70;1.07;;;;;;;18.80;100.00;102657.84;4992824;28;20193;-71
2022/07/09 09:26:50;;;;;;;2.90;1.20;;;;;;;18.66;100.00;102611.63;4998668;28;20235;-71
2022/07/09 09:29:15;;;;;;;6.00;1.50;;;;;;;18.12;100.00;102547.44;4994227;28;20476;-72
2022/07/09 09:31:41;;;;;;;3.80;1.63;;;;;;;18.73;100.00;102652.38;5001556;28;20265;-72
2022/07/09 09:34:06;;;;;;;4.47;1.50;;;;;;;18.66;100.00;102665.97;4990611;28;20200;-72
2022/07/09 09:36:33;;;;;;;5.07;1.47;;;;;;;18.83;100.00;102677.28;4994479;28;20654;-71
2022/07/09 09:39:18;;;;;;;3.70;1.50;;;;;;;18.97;100.00;102667.25;5000132;28;20185;-71
2022/07/09 09:41:52;;;;;;;4.90;1.60;;;;;;;19.05;100.00;102668.94;4999413;28;20564;-71
2022/07/09 09:44:21;;;;;;;4.50;1.80;;;;;;;19.24;100.00;102681.66;5004288;28;20502;-72
2022/07/09 09:46:47;;;;;;;2.27;1.30;;;;;;;18.82;100.00;102653.03;5002275;28;20427;-71
2022/07/09 09:49:15;;;;;;;5.80;1.80;;;;;;;18.62;100.00;102637.53;4999520;28;20472;-72
2022/07/09 09:51:49;;;;;;;6.40;1.40;;;;;;;18.94;100.00;102665.78;5000160;28;20186;-72
2022/07/09 09:54:16;;;;;;;3.27;1.20;;;;;;;18.38;100.00;102578.38;5001509;28;20433;-72
2022/07/09 09:56:43;;;;;;;5.50;1.53;;;;;;;18.61;100.00;102562.50;5003160;28;20424;-71
2022/07/09 09:59:09;;;;;;;5.13;1.53;;;;;;;19.03;100.00;102606.56;4987368;28;20988;-72
2022/07/09 10:01:35;;;;;;;4.90;1.50;;;;;;;19.50;100.00;102696.25;5001569;28;20432;-72
2022/07/09 10:04:01;;;;;;;2.70;1.30;;;;;;;19.70;100.00;102675.28;5001583;28;20419;-72
2022/07/09 10:06:27;;;;;;;6.13;1.40;;;;;;;19.06;100.00;102567.25;4998723;28;20200;-72
2022/07/09 10:08:56;;;;;;;4.33;1.83;;;;;;;19.03;100.00;102589.41;5000822;28;20787;-71
2022/07/09 10:11:22;;;;;;;3.50;1.27;;;;;;;18.94;100.00;102635.88;5012786;23;20581;-77
2022/07/09 10:13:52;;;;;;;2.20;1.07;;;;;;;18.55;100.00;102644.03;5004481;28;20514;-77
2022/07/09 10:16:18;;;;;;;3.60;1.20;;;;;;;18.51;100.00;102698.78;5005566;28;20438;-77
2022/07/09 10:18:53;;;;;;;3.20;1.00;;;;;;;18.19;100.00;102640.59;5019675;28;20866;-77
2022/07/09 10:21:37;;;;;;;4.30;1.50;;;;;;;18.75;100.00;102712.84;4998480;28;20255;-78
2022/07/09 10:24:04;;;;;;;3.80;1.20;;;;;;;18.23;100.00;102663.63;5007794;28;20418;-77
2022/07/09 10:26:42;;;;;;;3.83;1.27;;;;;;;18.53;100.00;102720.31;4989599;28;20443;-78
2022/07/09 10:29:29;;;;;;;2.30;1.03;;;;;;;17.73;100.00;102638.56;4990867;28;20525;-76
2022/07/09 10:31:55;;;;;;;2.57;1.37;;;;;;;18.16;100.00;102697.22;5007418;28;20448;-76
2022/07/09 10:34:51;;;;;;;4.53;1.00;;;;;;;18.20;100.00;102737.38;5008355;28;20517;-76
2022/07/09 10:37:17;;;;;;;2.30;1.30;;;;;;;17.60;100.00;102681.94;5007391;28;20482;-77
2022/07/09 10:39:53;;;;;;;2.00;0.93;;;;;;;17.83;100.00;102706.09;5007921;28;20973;-76
2022/07/09 10:42:21;;;;;;;3.90;1.70;;;;;;;18.33;100.00;102749.31;4990055;28;20212;-77
2022/07/09 10:44:49;;;;;;;3.60;1.23;;;;;;;18.23;100.00;102758.69;5005451;28;20509;-76
2022/07/09 10:47:15;;;;;;;4.63;1.50;;;;;;;17.92;100.00;102706.75;5008640;28;20412;-76
2022/07/09 10:49:41;;;;;;;4.27;1.23;;;;;;;18.09;100.00;102702.66;5005651;28;20517;-77
2022/07/09 10:52:07;;;;;;;4.33;1.37;;;;;;;18.34;100.00;102750.97;4989623;28;20588;-76
2022/07/09 10:54:34;;;;;;;3.77;1.57;;;;;;;18.62;100.00;102742.69;5006792;28;20178;-76
2022/07/09 10:56:59;;;;;;;4.87;1.47;;;;;;;17.65;100.00;102557.34;5008432;28;20416;-76
2022/07/09 10:59:25;;;;;;;4.87;1.50;;;;;;;18.96;100.00;102739.00;5004366;28;20435;-77
2022/07/09 11:01:51;;;;;;;3.50;1.27;;;;;;;17.38;100.00;102511.13;5006942;28;20201;-77
2022/07/09 11:04:25;;;;;;;4.47;1.37;;;;;;;17.40;100.00;102471.06;5007076;28;20436;-77
2022/07/09 11:06:50;;;;;;;4.23;1.37;;;;;;;19.11;100.00;102677.06;5007614;28;20424;-76
2022/07/09 11:09:16;;;;;;;4.63;1.50;;;;;;;19.42;100.00;102732.69;5007397;28;20452;-77
2022/07/09 11:11:43;;;;;;;6.53;1.57;;;;;;;19.30;100.00;102726.22;5005945;28;20707;-77
2022/07/09 11:14:11;;;;;;;5.30;1.70;;;;;;;18.43;100.00;102617.47;5007705;28;20930;-77